Time,TemperatureF,DewpointF,PressureIn,WindDirection,WindDirectionDegrees,WindSpeedMPH,WindSpeedGustMPH,Humidity,HourlyPrecipIn,Conditions,Clouds,dailyrainin,SoftwareType,DateUTC
2015-05-29 00:11:00,67.0,66.0,30.14,North,350,0.0,0.0,97,-99.99,,,-99.99,,2015-05-29 05:11:00,
2015-05-29 00:21:00,67.0,66.0,30.14,North,350,0.0,0.0,97,-99.99,,,-99.99,,2015-05-29 05:21:00,
2015-05-29 00:31:00,67.0,66.0,30.13,North,350,0.0,0.0,97,-99.99,,,-99.99,,2015-05-29 05:31:00,
2015-05-29 01:02:00,67.0,66.0,30.12,North,350,0.0,0.0,97,-99.99,,,-99.99,,2015-05-29 06:02:00,
2015-05-29 01:12:00,67.0,66.0,30.11,North,350,0.0,0.0,97,-99.99,,,-99.99,,2015-05-29 06:12:00,
2015-05-29 01:22:00,67.0,66.0,30.11,North,350,0.0,0.0,97,-99.99,,,-99.99,,2015-05-29 06:22:00,
2015-05-29 02:03:00,67.0,66.0,30.10,North,350,0.0,0.0,97,-99.99,,,-99.99,,2015-05-29 07:03:00,
2015-05-29 02:12:00,67.0,66.0,30.10,North,350,0.0,0.0,97,-99.99,,,-99.99,,2015-05-29 07:12:00,
2015-05-29 02:21:00,67.0,66.0,30.10,North,350,0.0,0.0,97,-99.99,,,-99.99,,2015-05-29 07:21:00,
2015-05-29 02:31:00,66.0,65.0,30.10,North,350,0.0,0.0,97,-99.99,,,-99.99,,2015-05-29 07:31:00,
2015-05-29 02:43:00,66.0,65.0,30.10,North,350,0.0,0.0,97,-99.99,,,-99.99,,2015-05-29 07:43:00,
2015-05-29 03:01:00,66.0,65.0,30.11,North,350,0.0,0.0,97,-99.99,,,-99.99,,2015-05-29 08:01:00,
2015-05-29 03:21:00,66.0,65.0,30.11,North,350,0.0,0.0,97,-99.99,,,-99.99,,2015-05-29 08:21:00,
2015-05-29 03:31:00,66.0,65.0,30.11,North,350,0.0,0.0,97,-99.99,,,-99.99,,2015-05-29 08:31:00,
2015-05-29 03:42:00,66.0,65.0,30.11,North,350,0.0,0.0,97,-99.99,,,-99.99,,2015-05-29 08:42:00,
2015-05-29 03:51:00,66.0,65.0,30.11,North,350,0.0,0.0,97,-99.99,,,-99.99,,2015-05-29 08:51:00,
2015-05-29 04:02:00,65.0,64.0,30.11,North,350,0.0,0.0,97,-99.99,,,-99.99,,2015-05-29 09:02:00,
2015-05-29 04:11:00,65.0,64.0,30.11,North,350,0.0,0.0,97,-99.99,,,-99.99,,2015-05-29 09:11:00,
2015-05-29 04:32:00,65.0,64.0,30.11,North,350,0.0,0.0,97,-99.99,,,-99.99,,2015-05-29 09:32:00,
2015-05-29 04:43:00,65.0,64.0,30.11,North,350,0.0,0.0,97,-99.99,,,-99.99,,2015-05-29 09:43:00,
2015-05-29 05:02:00,65.0,64.0,30.12,North,350,0.0,0.0,98,-99.99,,,-99.99,,2015-05-29 10:02:00,
2015-05-29 05:21:00,65.0,64.0,30.12,North,350,0.0,0.0,98,-99.99,,,-99.99,,2015-05-29 10:21:00,
2015-05-29 05:31:00,65.0,64.0,30.12,North,350,0.0,0.0,98,-99.99,,,-99.99,,2015-05-29 10:31:00,
2015-05-29 06:03:00,65.0,64.0,30.12,North,350,0.0,0.0,98,-99.99,,,-99.99,,2015-05-29 11:03:00,
2015-05-29 06:21:00,65.0,64.0,30.13,North,350,0.0,0.0,98,-99.99,,,-99.99,,2015-05-29 11:21:00,
2015-05-29 06:42:00,65.0,64.0,30.14,North,350,0.0,0.0,98,-99.99,,,-99.99,,2015-05-29 11:42:00,
2015-05-29 07:02:00,66.0,65.0,30.15,North,350,0.0,0.0,98,-99.99,,,-99.99,,2015-05-29 12:02:00,
2015-05-29 07:21:00,67.0,66.0,30.16,North,350,0.0,0.0,98,-99.99,,,-99.99,,2015-05-29 12:21:00,
2015-05-29 07:32:00,67.0,66.0,30.16,North,349,0.0,1.0,98,-99.99,,,-99.99,,2015-05-29 12:32:00,
2015-05-29 07:42:00,68.0,67.0,30.17,North,355,0.0,3.0,98,-99.99,,,-99.99,,2015-05-29 12:42:00,
2015-05-29 07:51:00,68.0,67.0,30.17,North,355,0.0,3.0,98,-99.99,,,-99.99,,2015-05-29 12:51:00,
2015-05-29 08:02:00,69.0,68.0,30.17,NNW,342,0.0,1.0,98,-99.99,,,-99.99,,2015-05-29 13:02:00,
2015-05-29 08:12:00,69.0,68.0,30.17,NNW,342,0.0,1.0,98,-99.99,,,-99.99,,2015-05-29 13:12:00,
2015-05-29 08:21:00,69.0,68.0,30.18,NNW,345,0.0,3.0,98,-99.99,,,-99.99,,2015-05-29 13:21:00,
2015-05-29 08:31:00,70.0,68.0,30.19,NW,316,0.0,5.0,95,-99.99,,,-99.99,,2015-05-29 13:31:00,
2015-05-29 08:51:00,71.0,69.0,30.19,North,355,0.0,6.0,94,-99.99,,,-99.99,,2015-05-29 13:51:00,
2015-05-29 09:02:00,71.0,69.0,30.19,NNW,342,0.0,3.0,93,-99.99,,,-99.99,,2015-05-29 14:02:00,
2015-05-29 09:11:00,72.0,69.0,30.19,NNW,347,1.0,4.0,91,-99.99,,,-99.99,,2015-05-29 14:11:00,
2015-05-29 09:31:00,73.0,70.0,30.19,NW,325,0.0,4.0,91,-99.99,,,-99.99,,2015-05-29 14:31:00,
2015-05-29 09:43:00,73.0,70.0,30.19,NW,313,1.0,4.0,90,-99.99,,,-99.99,,2015-05-29 14:43:00,
2015-05-29 10:02:00,74.0,71.0,30.20,North,350,0.0,3.0,89,-99.99,,,-99.99,,2015-05-29 15:02:00,
2015-05-29 10:11:00,75.0,71.0,30.20,North,350,0.0,4.0,87,-99.99,,,-99.99,,2015-05-29 15:11:00,
2015-05-29 10:21:00,75.0,71.0,30.20,North,350,0.0,4.0,87,-99.99,,,-99.99,,2015-05-29 15:21:00,
2015-05-29 10:42:00,75.0,71.0,30.20,NNW,344,0.0,7.0,87,-99.99,,,-99.99,,2015-05-29 15:42:00,
2015-05-29 10:52:00,76.0,70.0,30.20,North,351,3.0,5.0,83,-99.99,,,-99.99,,2015-05-29 15:52:00,
2015-05-29 11:02:00,77.0,71.0,30.20,North,350,0.0,5.0,82,-99.99,,,-99.99,,2015-05-29 16:02:00,
2015-05-29 11:21:00,78.0,71.0,30.20,North,355,1.0,4.0,78,-99.99,,,-99.99,,2015-05-29 16:21:00,
2015-05-29 11:42:00,79.0,69.0,30.20,North,350,1.0,6.0,71,-99.99,,,-99.99,,2015-05-29 16:42:00,
2015-05-29 11:52:00,79.0,68.0,30.19,North,351,3.0,8.0,68,-99.99,,,-99.99,,2015-05-29 16:52:00,
2015-05-29 12:02:00,80.0,67.0,30.19,North,351,3.0,8.0,65,-99.99,,,-99.99,,2015-05-29 17:02:00,
2015-05-29 12:12:00,81.0,70.0,30.19,North,355,0.0,4.0,69,-99.99,,,-99.99,,2015-05-29 17:12:00,
2015-05-29 12:22:00,81.0,70.0,30.19,North,355,0.0,4.0,69,-99.99,,,-99.99,,2015-05-29 17:22:00,
2015-05-29 12:32:00,82.0,69.0,30.18,NNW,346,1.0,6.0,65,-99.99,,,-99.99,,2015-05-29 17:32:00,
2015-05-29 12:43:00,82.0,69.0,30.17,NNW,345,3.0,7.0,64,-99.99,,,-99.99,,2015-05-29 17:43:00,
2015-05-29 12:52:00,82.0,69.0,30.17,NNW,345,3.0,7.0,64,-99.99,,,-99.99,,2015-05-29 17:52:00,
2015-05-29 13:22:00,83.0,68.0,30.17,North,355,1.0,6.0,61,-99.99,,,-99.99,,2015-05-29 18:22:00,
2015-05-29 13:42:00,84.0,69.0,30.16,NNW,342,1.0,5.0,60,-99.99,,,-99.99,,2015-05-29 18:42:00,
2015-05-29 14:03:00,84.0,68.0,30.16,NNW,346,0.0,7.0,58,-99.99,,,-99.99,,2015-05-29 19:03:00,
2015-05-29 14:22:00,84.0,68.0,30.15,North,351,1.0,7.0,59,-99.99,,,-99.99,,2015-05-29 19:22:00,
2015-05-29 14:32:00,85.0,68.0,30.14,North,351,3.0,8.0,57,-99.99,,,-99.99,,2015-05-29 19:32:00,
2015-05-29 14:43:00,85.0,67.0,30.14,North,351,2.0,9.0,55,-99.99,,,-99.99,,2015-05-29 19:43:00,
2015-05-29 15:03:00,85.0,68.0,30.13,NNW,337,0.0,5.0,56,-99.99,,,-99.99,,2015-05-29 20:03:00,
2015-05-29 15:43:00,85.0,67.0,30.12,NW,325,2.0,7.0,55,-99.99,,,-99.99,,2015-05-29 20:43:00,
2015-05-29 15:51:00,85.0,67.0,30.12,NW,325,2.0,7.0,55,-99.99,,,-99.99,,2015-05-29 20:51:00,
2015-05-29 16:03:00,85.0,66.0,30.11,North,351,1.0,4.0,54,-99.99,,,-99.99,,2015-05-29 21:03:00,
2015-05-29 16:11:00,86.0,66.0,30.10,North,355,3.0,6.0,51,-99.99,,,-99.99,,2015-05-29 21:11:00,
2015-05-29 16:21:00,86.0,66.0,30.10,North,355,3.0,6.0,51,-99.99,,,-99.99,,2015-05-29 21:21:00,
2015-05-29 16:41:00,85.0,66.0,30.10,North,350,1.0,5.0,53,-99.99,,,-99.99,,2015-05-29 21:41:00,
2015-05-29 16:51:00,85.0,66.0,30.10,North,350,1.0,5.0,53,-99.99,,,-99.99,,2015-05-29 21:51:00,
2015-05-29 17:02:00,84.0,65.0,30.11,North,355,1.0,8.0,53,-99.99,,,-99.99,,2015-05-29 22:02:00,
2015-05-29 17:11:00,85.0,66.0,30.10,North,351,0.0,4.0,53,-99.99,,,-99.99,,2015-05-29 22:11:00,
2015-05-29 17:31:00,85.0,65.0,30.09,North,351,1.0,6.0,51,-99.99,,,-99.99,,2015-05-29 22:31:00,
2015-05-29 17:41:00,84.0,64.0,30.09,NW,318,0.0,5.0,52,-99.99,,,-99.99,,2015-05-29 22:41:00,
2015-05-29 18:03:00,83.0,62.0,30.09,NNW,342,1.0,5.0,50,-99.99,,,-99.99,,2015-05-29 23:03:00,
2015-05-29 18:11:00,83.0,63.0,30.09,North,351,0.0,5.0,51,-99.99,,,-99.99,,2015-05-29 23:11:00,
2015-05-29 18:21:00,83.0,63.0,30.09,North,351,0.0,5.0,51,-99.99,,,-99.99,,2015-05-29 23:21:00,
2015-05-29 18:42:00,82.0,64.0,30.09,North,349,0.0,2.0,55,-99.99,,,-99.99,,2015-05-29 23:42:00,
2015-05-29 19:02:00,81.0,64.0,30.09,North,355,0.0,2.0,57,-99.99,,,-99.99,,2015-05-30 00:02:00,
2015-05-29 19:11:00,80.0,66.0,30.09,NNW,335,0.0,1.0,62,-99.99,,,-99.99,,2015-05-30 00:11:00,
2015-05-29 19:21:00,80.0,66.0,30.09,NNW,335,0.0,1.0,62,-99.99,,,-99.99,,2015-05-30 00:21:00,
2015-05-29 19:41:00,77.0,65.0,30.09,NNW,335,0.0,1.0,66,-99.99,,,-99.99,,2015-05-30 00:41:00,
2015-05-29 20:02:00,76.0,65.0,30.09,NNW,335,0.0,0.0,69,-99.99,,,-99.99,,2015-05-30 01:02:00,
2015-05-29 20:11:00,75.0,65.0,30.10,NNW,335,0.0,1.0,71,-99.99,,,-99.99,,2015-05-30 01:11:00,
2015-05-29 20:21:00,75.0,65.0,30.10,NNW,335,0.0,1.0,71,-99.99,,,-99.99,,2015-05-30 01:21:00,
2015-05-29 20:51:00,74.0,66.0,30.10,NNW,335,0.0,0.0,75,-99.99,,,-99.99,,2015-05-30 01:51:00,
2015-05-29 21:01:00,73.0,65.0,30.11,NNW,335,0.0,0.0,76,-99.99,,,-99.99,,2015-05-30 02:01:00,
2015-05-29 21:21:00,73.0,66.0,30.11,NNW,335,0.0,0.0,79,-99.99,,,-99.99,,2015-05-30 02:21:00,
2015-05-29 21:31:00,72.0,65.0,30.11,NNW,335,0.0,0.0,80,-99.99,,,-99.99,,2015-05-30 02:31:00,
2015-05-29 21:41:00,71.0,65.0,30.12,NNW,335,0.0,0.0,82,-99.99,,,-99.99,,2015-05-30 02:41:00,